createdAt,value
2023-02-27T00:04:17.802Z,2.25
2023-02-27T00:09:09.665Z,2.00
2023-02-27T00:14:01.585Z,3.33
2023-02-27T00:18:53.454Z,2.33
2023-02-27T00:23:45.187Z,3.75
2023-02-27T00:28:36.945Z,3.15
2023-02-27T00:33:28.840Z,3.53
2023-02-27T00:38:20.785Z,2.72
2023-02-27T00:43:12.520Z,2.63
2023-02-27T00:48:04.747Z,1.85
2023-02-27T00:52:56.552Z,2.35
2023-02-27T00:57:48.477Z,2.20
2023-02-27T01:02:40.650Z,1.73
2023-02-27T01:07:32.818Z,3.45
2023-02-27T01:12:25.726Z,1.38
2023-02-27T01:17:17.578Z,5.78
2023-02-27T01:22:09.450Z,6.53
2023-02-27T01:27:01.222Z,5.82
2023-02-27T01:31:54.588Z,7.50
2023-02-27T01:36:46.499Z,4.60
2023-02-27T01:41:41.128Z,5.07
2023-02-27T01:46:34.208Z,2.78
2023-02-27T01:51:30.262Z,2.65
2023-02-27T01:56:29.065Z,4.50
2023-02-27T02:01:23.459Z,4.43
2023-02-27T02:06:15.256Z,2.03
2023-02-27T02:11:09.193Z,2.70
2023-02-27T02:16:16.111Z,5.28
2023-02-27T02:21:45.583Z,6.28
2023-02-27T02:26:51.426Z,2.17
2023-02-27T02:32:08.465Z,4.55
2023-02-27T02:37:18.836Z,3.80
2023-02-27T02:42:25.452Z,4.95
2023-02-27T02:47:24.187Z,4.97
2023-02-27T02:52:57.073Z,4.22
2023-02-27T02:58:17.173Z,6.55
2023-02-27T03:03:15.754Z,2.47
2023-02-27T03:08:11.825Z,2.25
2023-02-27T03:13:13.094Z,3.88
2023-02-27T03:18:20.657Z,2.78
2023-02-27T03:23:18.416Z,3.13
2023-02-27T03:28:16.441Z,1.60
2023-02-27T03:33:21.720Z,3.05
2023-02-27T03:38:28.036Z,2.35
2023-02-27T03:43:43.576Z,4.00
2023-02-27T03:48:35.799Z,3.05
2023-02-27T03:53:33.732Z,3.70
2023-02-27T03:58:26.279Z,3.70
2023-02-27T04:03:18.354Z,4.20
2023-02-27T04:08:20.279Z,3.53
2023-02-27T04:13:23.917Z,2.50
2023-02-27T04:18:35.986Z,5.88
2023-02-27T04:23:30.501Z,4.30
2023-02-27T04:28:31.641Z,4.95
2023-02-27T04:33:44.840Z,2.92
2023-02-27T04:38:39.709Z,2.88
2023-02-27T04:43:33.473Z,5.32
2023-02-27T04:48:29.200Z,3.72
2023-02-27T04:53:27.884Z,3.65
2023-02-27T04:58:28.409Z,3.88
2023-02-27T05:03:25.851Z,2.72
2023-02-27T05:08:43.274Z,2.30
2023-02-27T05:13:51.443Z,5.13
2023-02-27T05:18:43.857Z,5.60
2023-02-27T05:24:06.360Z,7.15
2023-02-27T05:29:26.037Z,5.20
2023-02-27T05:34:25.777Z,4.40
2023-02-27T05:39:22.039Z,7.03
2023-02-27T05:44:25.378Z,2.22
2023-02-27T05:49:33.819Z,3.92
2023-02-27T05:54:44.110Z,8.68
2023-02-27T06:00:11.464Z,3.35
2023-02-27T06:05:06.777Z,5.85
2023-02-27T06:09:58.867Z,9.02
2023-02-27T06:14:51.914Z,7.05
2023-02-27T06:19:43.945Z,5.18
2023-02-27T06:24:35.854Z,5.72
2023-02-27T06:29:27.694Z,6.28
2023-02-27T06:34:19.509Z,3.67
2023-02-27T06:39:12.128Z,8.80
2023-02-27T06:44:04.208Z,5.18
2023-02-27T06:48:56.069Z,6.25
2023-02-27T06:53:47.920Z,3.63
2023-02-27T06:58:39.690Z,6.57
2023-02-27T07:03:31.465Z,5.72
2023-02-27T07:08:23.295Z,4.68
2023-02-27T07:13:17.352Z,7.07
2023-02-27T07:18:11.331Z,6.90
2023-02-27T07:23:03.499Z,6.13
2023-02-27T07:27:56.196Z,5.38
2023-02-27T07:32:48.167Z,5.05
2023-02-27T07:37:40.180Z,3.90
2023-02-27T07:42:35.570Z,4.95
2023-02-27T07:47:27.406Z,5.40
2023-02-27T07:52:19.181Z,11.93
2023-02-27T07:57:11.108Z,11.60
2023-02-27T08:02:03.033Z,6.60
2023-02-27T08:06:55.008Z,9.25
2023-02-27T08:11:48.888Z,9.77
2023-02-27T08:16:41.195Z,5.88
2023-02-27T08:21:33.120Z,9.15
2023-02-27T08:26:25.140Z,7.07
2023-02-27T08:31:17.121Z,3.42
2023-02-27T08:36:10.281Z,5.85
2023-02-27T08:41:02.197Z,10.82
2023-02-27T08:45:54.250Z,4.45
2023-02-27T08:50:47.170Z,6.95
2023-02-27T08:55:39.040Z,5.70
2023-02-27T09:00:32.591Z,12.73
2023-02-27T09:05:24.369Z,12.90
2023-02-27T09:10:16.281Z,7.63
2023-02-27T09:15:09.112Z,4.68
2023-02-27T09:20:00.989Z,8.60
2023-02-27T09:24:52.824Z,6.25
2023-02-27T09:29:44.701Z,6.72
2023-02-27T09:34:36.613Z,6.20
2023-02-27T09:39:29.305Z,11.80
2023-02-27T09:44:46.666Z,7.35
2023-02-27T09:49:56.149Z,12.35
2023-02-27T09:54:48.934Z,14.90
2023-02-27T09:59:52.825Z,5.25
2023-02-27T10:04:58.551Z,7.80
2023-02-27T10:09:59.720Z,6.82
2023-02-27T10:15:16.722Z,8.68
2023-02-27T10:20:17.056Z,8.40
2023-02-27T10:25:30.883Z,8.07
2023-02-27T10:30:34.826Z,12.07
2023-02-27T10:35:39.794Z,11.45
2023-02-27T10:40:36.470Z,10.77
2023-02-27T10:45:28.993Z,8.93
2023-02-27T10:50:23.310Z,13.50
2023-02-27T10:55:22.907Z,7.97
2023-02-27T11:00:44.258Z,10.15
2023-02-27T11:05:37.169Z,6.72
2023-02-27T11:10:29.166Z,10.90
2023-02-27T11:15:25.866Z,10.52
2023-02-27T11:20:29.708Z,11.35
2023-02-27T11:25:24.274Z,8.95
2023-02-27T11:30:28.687Z,10.95
2023-02-27T11:35:28.384Z,14.13
2023-02-27T11:40:22.315Z,7.57
2023-02-27T11:46:28.222Z,14.05
2023-02-27T11:50:52.197Z,8.00
2023-02-27T11:55:45.362Z,13.13
2023-02-27T12:00:43.289Z,15.23
2023-02-27T12:05:50.578Z,16.58
2023-02-27T12:11:01.708Z,11.85
2023-02-27T12:16:08.526Z,11.45
2023-02-27T12:21:10.463Z,9.93
2023-02-27T12:26:26.507Z,9.15
2023-02-27T12:31:36.142Z,11.75
2023-02-27T12:36:28.220Z,20.27
2023-02-27T12:41:37.444Z,12.20
2023-02-27T12:46:48.180Z,20.20
2023-02-27T12:51:51.408Z,18.35
2023-02-27T12:56:46.406Z,9.93
2023-02-27T13:01:46.940Z,12.05
2023-02-27T13:06:58.252Z,12.15
2023-02-27T13:11:58.498Z,10.05
2023-02-27T13:17:19.556Z,15.60
2023-02-27T13:22:38.588Z,14.30
2023-02-27T13:27:38.292Z,14.68
2023-02-27T13:32:44.820Z,19.48
2023-02-27T13:37:55.086Z,19.27
2023-02-27T13:42:46.771Z,16.17
2023-02-27T13:47:41.035Z,16.10
2023-02-27T13:52:35.114Z,10.95
2023-02-27T13:57:28.605Z,17.33
2023-02-27T14:02:34.617Z,19.98
2023-02-27T14:07:34.298Z,16.52
2023-02-27T14:12:45.418Z,13.88
2023-02-27T14:17:37.902Z,14.25
2023-02-27T14:22:33.853Z,14.98
2023-02-27T14:27:29.667Z,12.02
2023-02-27T14:32:24.513Z,13.45
2023-02-27T14:37:21.782Z,10.40
2023-02-27T14:42:51.785Z,17.13
2023-02-27T14:47:43.599Z,16.65
2023-02-27T14:52:43.199Z,20.02
2023-02-27T14:57:34.953Z,11.77
2023-02-27T15:02:30.799Z,15.60
2023-02-27T15:07:28.744Z,12.40
2023-02-27T15:12:22.837Z,12.75
2023-02-27T15:17:23.377Z,14.90
2023-02-27T15:22:28.891Z,10.65
2023-02-27T15:27:28.692Z,11.25
2023-02-27T15:32:26.457Z,13.25
2023-02-27T15:37:25.378Z,14.00
2023-02-27T15:42:21.122Z,14.68
2023-02-27T15:47:18.692Z,16.10
2023-02-27T15:55:00.815Z,12.05
2023-02-27T15:59:55.108Z,12.30
2023-02-27T16:04:47.631Z,14.80
2023-02-27T16:09:39.497Z,14.25
2023-02-27T16:14:44.982Z,12.07
2023-02-27T16:19:40.716Z,8.23
2023-02-27T16:24:33.684Z,11.80
2023-02-27T16:29:34.416Z,12.00
2023-02-27T16:34:42.751Z,12.30
2023-02-27T16:39:36.300Z,11.13
2023-02-27T16:44:29.457Z,8.48
2023-02-27T16:49:27.132Z,11.07
2023-02-27T16:54:19.961Z,21.17
2023-02-27T16:59:28.269Z,48.05
2023-02-27T17:04:25.864Z,16.40
2023-02-27T17:09:18.054Z,17.90
2023-02-27T17:14:09.988Z,15.70
2023-02-27T17:19:01.842Z,16.17
2023-02-27T17:23:53.732Z,16.73
2023-02-27T17:28:45.441Z,13.43
2023-02-27T17:33:37.398Z,13.15
2023-02-27T17:38:29.313Z,17.55
2023-02-27T17:43:21.020Z,14.82
2023-02-27T17:48:13.230Z,17.40
2023-02-27T17:53:05.226Z,15.63
2023-02-27T17:57:57.005Z,17.92
2023-02-27T18:02:48.800Z,18.75
2023-02-27T18:07:40.583Z,19.50
2023-02-27T18:12:32.674Z,18.92
2023-02-27T18:17:24.480Z,17.55
2023-02-27T18:22:16.418Z,15.93
2023-02-27T18:27:08.376Z,19.90
2023-02-27T18:32:00.467Z,19.15
2023-02-27T18:36:52.348Z,15.45
2023-02-27T18:41:44.419Z,15.63
2023-02-27T18:46:38.428Z,19.83
2023-02-27T18:51:30.348Z,18.67
2023-02-27T18:56:25.142Z,12.48
2023-02-27T19:01:24.680Z,21.98
2023-02-27T19:06:16.481Z,17.95
2023-02-27T19:11:08.258Z,20.65
2023-02-27T19:16:07.370Z,16.90
2023-02-27T19:21:05.710Z,23.17
2023-02-27T19:26:01.162Z,23.92
2023-02-27T19:30:53.014Z,21.15
2023-02-27T19:35:44.874Z,21.90
2023-02-27T19:40:36.759Z,18.83
2023-02-27T19:45:29.199Z,27.23
2023-02-27T19:50:21.082Z,23.30
2023-02-27T19:55:12.943Z,18.77
2023-02-27T20:00:08.887Z,19.85
2023-02-27T20:05:08.518Z,18.65
2023-02-27T20:10:00.272Z,21.88
2023-02-27T20:14:52.277Z,18.08
2023-02-27T20:19:44.074Z,18.50
2023-02-27T20:24:35.837Z,14.20
2023-02-27T20:29:28.452Z,16.15
2023-02-27T20:34:22.516Z,19.52
2023-02-27T20:39:14.584Z,17.17
2023-02-27T20:44:11.559Z,14.35
2023-02-27T20:49:04.612Z,15.35
2023-02-27T20:53:58.753Z,16.63
2023-02-27T20:58:51.096Z,16.40
2023-02-27T21:03:44.998Z,17.40
2023-02-27T21:08:38.926Z,12.48
2023-02-27T21:13:30.687Z,18.00
2023-02-27T21:18:22.393Z,14.27
2023-02-27T21:23:14.096Z,13.63
2023-02-27T21:28:06.596Z,16.55
2023-02-27T21:32:58.466Z,13.13
2023-02-27T21:37:50.263Z,17.38
2023-02-27T21:42:43.236Z,14.98
2023-02-27T21:47:35.014Z,18.50
2023-02-27T21:52:26.903Z,15.90
2023-02-27T21:57:21.797Z,13.50
2023-02-27T22:02:13.834Z,13.13
2023-02-27T22:07:05.805Z,13.23
2023-02-27T22:11:57.683Z,16.75
2023-02-27T22:16:49.671Z,12.52
2023-02-27T22:21:41.745Z,16.25
2023-02-27T22:26:33.757Z,18.58
2023-02-27T22:31:31.687Z,16.33
2023-02-27T22:36:26.273Z,13.63
2023-02-27T22:41:21.312Z,15.48
2023-02-27T22:46:17.203Z,16.60
2023-02-27T22:51:14.632Z,17.58
2023-02-27T22:56:09.594Z,17.00
2023-02-27T23:01:01.803Z,15.07
2023-02-27T23:05:53.625Z,19.73
2023-02-27T23:10:45.985Z,17.42
2023-02-27T23:15:38.781Z,19.23
2023-02-27T23:20:30.505Z,17.88
2023-02-27T23:25:22.247Z,17.10
2023-02-27T23:30:14.518Z,15.55
2023-02-27T23:35:06.449Z,18.70
2023-02-27T23:39:58.168Z,17.58
2023-02-27T23:44:49.870Z,16.73
2023-02-27T23:49:41.638Z,17.48
2023-02-27T23:54:33.477Z,16.17
2023-02-27T23:59:28.049Z,18.58
